sensor_id;sensor_type;location;lat;lon;timestamp;P1;durP1;ratioP1;P2;durP2;ratioP2
37355;SDS011;48747;50.250;18.848;2023-01-30T00:01:12;38.95;;;19.57;;
37355;SDS011;48747;50.250;18.848;2023-01-30T00:03:20;36.70;;;16.67;;
37355;SDS011;48747;50.250;18.848;2023-01-30T00:05:24;35.13;;;16.90;;
37355;SDS011;48747;50.250;18.848;2023-01-30T00:07:27;36.68;;;17.40;;
37355;SDS011;48747;50.250;18.848;2023-01-30T00:09:30;37.93;;;18.62;;
37355;SDS011;48747;50.250;18.848;2023-01-30T00:11:33;39.45;;;18.05;;
37355;SDS011;48747;50.250;18.848;2023-01-30T00:13:44;42.58;;;20.48;;
37355;SDS011;48747;50.250;18.848;2023-01-30T00:15:43;49.60;;;22.30;;
37355;SDS011;48747;50.250;18.848;2023-01-30T00:17:46;42.75;;;18.35;;
37355;SDS011;48747;50.250;18.848;2023-01-30T00:19:51;44.73;;;20.32;;
37355;SDS011;48747;50.250;18.848;2023-01-30T00:21:54;43.10;;;20.45;;
37355;SDS011;48747;50.250;18.848;2023-01-30T00:24:02;53.08;;;21.93;;
37355;SDS011;48747;50.250;18.848;2023-01-30T00:26:05;36.00;;;18.00;;
37355;SDS011;48747;50.250;18.848;2023-01-30T00:28:10;37.58;;;17.77;;
37355;SDS011;48747;50.250;18.848;2023-01-30T00:30:13;37.28;;;17.30;;
37355;SDS011;48747;50.250;18.848;2023-01-30T00:32:25;42.15;;;18.48;;
37355;SDS011;48747;50.250;18.848;2023-01-30T00:34:24;30.55;;;15.38;;
37355;SDS011;48747;50.250;18.848;2023-01-30T00:36:34;33.53;;;15.80;;
37355;SDS011;48747;50.250;18.848;2023-01-30T00:38:34;37.35;;;17.85;;
37355;SDS011;48747;50.250;18.848;2023-01-30T00:40:39;31.35;;;15.48;;
37355;SDS011;48747;50.250;18.848;2023-01-30T00:42:45;31.90;;;16.30;;
37355;SDS011;48747;50.250;18.848;2023-01-30T00:45:19;32.90;;;16.12;;
37355;SDS011;48747;50.250;18.848;2023-01-30T00:47:30;35.17;;;16.80;;
37355;SDS011;48747;50.250;18.848;2023-01-30T00:49:33;36.77;;;18.00;;
37355;SDS011;48747;50.250;18.848;2023-01-30T00:51:38;37.98;;;18.48;;
37355;SDS011;48747;50.250;18.848;2023-01-30T00:53:41;32.70;;;17.35;;
37355;SDS011;48747;50.250;18.848;2023-01-30T00:55:44;37.85;;;16.95;;
37355;SDS011;48747;50.250;18.848;2023-01-30T00:57:49;35.25;;;17.92;;
37355;SDS011;48747;50.250;18.848;2023-01-30T00:59:52;37.40;;;17.98;;
37355;SDS011;48747;50.250;18.848;2023-01-30T01:01:55;36.35;;;17.05;;
37355;SDS011;48747;50.250;18.848;2023-01-30T01:03:59;36.05;;;17.92;;
37355;SDS011;48747;50.250;18.848;2023-01-30T01:06:02;36.25;;;17.17;;
37355;SDS011;48747;50.250;18.848;2023-01-30T01:08:05;37.35;;;17.82;;
37355;SDS011;48747;50.250;18.848;2023-01-30T01:10:13;33.88;;;17.20;;
37355;SDS011;48747;50.250;18.848;2023-01-30T01:12:16;37.78;;;17.05;;
37355;SDS011;48747;50.250;18.848;2023-01-30T01:14:20;30.92;;;16.37;;
37355;SDS011;48747;50.250;18.848;2023-01-30T01:16:23;31.20;;;16.15;;
37355;SDS011;48747;50.250;18.848;2023-01-30T01:18:27;38.92;;;18.30;;
37355;SDS011;48747;50.250;18.848;2023-01-30T01:20:32;32.17;;;15.70;;
37355;SDS011;48747;50.250;18.848;2023-01-30T01:22:40;36.30;;;18.10;;
37355;SDS011;48747;50.250;18.848;2023-01-30T01:24:43;34.33;;;17.90;;
37355;SDS011;48747;50.250;18.848;2023-01-30T01:26:54;33.60;;;16.35;;
37355;SDS011;48747;50.250;18.848;2023-01-30T01:28:59;45.83;;;19.90;;
37355;SDS011;48747;50.250;18.848;2023-01-30T01:31:08;36.15;;;17.25;;
37355;SDS011;48747;50.250;18.848;2023-01-30T01:33:14;33.90;;;17.42;;
37355;SDS011;48747;50.250;18.848;2023-01-30T01:35:17;31.85;;;15.98;;
37355;SDS011;48747;50.250;18.848;2023-01-30T01:37:21;33.53;;;16.45;;
37355;SDS011;48747;50.250;18.848;2023-01-30T01:39:26;31.57;;;16.82;;
37355;SDS011;48747;50.250;18.848;2023-01-30T01:41:31;36.30;;;18.42;;
37355;SDS011;48747;50.250;18.848;2023-01-30T01:46:11;33.63;;;16.17;;
37355;SDS011;48747;50.250;18.848;2023-01-30T01:48:17;43.42;;;20.35;;
37355;SDS011;48747;50.250;18.848;2023-01-30T01:50:27;38.15;;;18.32;;
37355;SDS011;48747;50.250;18.848;2023-01-30T01:52:27;39.98;;;18.75;;
37355;SDS011;48747;50.250;18.848;2023-01-30T01:54:35;43.68;;;19.90;;
37355;SDS011;48747;50.250;18.848;2023-01-30T01:56:43;43.50;;;19.67;;
37355;SDS011;48747;50.250;18.848;2023-01-30T01:58:53;41.95;;;20.05;;
37355;SDS011;48747;50.250;18.848;2023-01-30T02:00:56;40.55;;;18.42;;
37355;SDS011;48747;50.250;18.848;2023-01-30T02:03:02;44.75;;;20.15;;
37355;SDS011;48747;50.250;18.848;2023-01-30T02:05:10;41.20;;;17.70;;
37355;SDS011;48747;50.250;18.848;2023-01-30T02:07:16;30.60;;;15.23;;
37355;SDS011;48747;50.250;18.848;2023-01-30T02:09:21;34.98;;;15.98;;
37355;SDS011;48747;50.250;18.848;2023-01-30T02:11:26;34.90;;;15.83;;
37355;SDS011;48747;50.250;18.848;2023-01-30T02:13:51;28.87;;;15.30;;
37355;SDS011;48747;50.250;18.848;2023-01-30T02:15:51;33.23;;;16.77;;
37355;SDS011;48747;50.250;18.848;2023-01-30T02:17:57;30.45;;;15.53;;
37355;SDS011;48747;50.250;18.848;2023-01-30T02:20:04;28.75;;;14.28;;
37355;SDS011;48747;50.250;18.848;2023-01-30T02:31:53;26.60;;;13.18;;
37355;SDS011;48747;50.250;18.848;2023-01-30T02:41:43;27.35;;;13.60;;
37355;SDS011;48747;50.250;18.848;2023-01-30T02:43:55;26.95;;;14.18;;
37355;SDS011;48747;50.250;18.848;2023-01-30T02:46:01;24.30;;;13.35;;
37355;SDS011;48747;50.250;18.848;2023-01-30T02:48:10;28.10;;;13.68;;
37355;SDS011;48747;50.250;18.848;2023-01-30T02:50:19;23.02;;;12.55;;
37355;SDS011;48747;50.250;18.848;2023-01-30T02:52:27;26.20;;;13.85;;
37355;SDS011;48747;50.250;18.848;2023-01-30T02:54:33;30.72;;;14.87;;
37355;SDS011;48747;50.250;18.848;2023-01-30T02:56:43;24.72;;;14.18;;
37355;SDS011;48747;50.250;18.848;2023-01-30T02:59:00;27.27;;;13.48;;
37355;SDS011;48747;50.250;18.848;2023-01-30T03:15:02;26.23;;;12.65;;
37355;SDS011;48747;50.250;18.848;2023-01-30T03:17:06;25.05;;;13.60;;
37355;SDS011;48747;50.250;18.848;2023-01-30T03:19:11;24.18;;;12.68;;
37355;SDS011;48747;50.250;18.848;2023-01-30T03:21:17;32.95;;;13.45;;
37355;SDS011;48747;50.250;18.848;2023-01-30T03:23:22;25.68;;;12.60;;
37355;SDS011;48747;50.250;18.848;2023-01-30T03:25:25;24.90;;;13.68;;
37355;SDS011;48747;50.250;18.848;2023-01-30T03:27:29;26.77;;;12.73;;
37355;SDS011;48747;50.250;18.848;2023-01-30T03:29:33;25.15;;;13.50;;
37355;SDS011;48747;50.250;18.848;2023-01-30T03:31:37;25.43;;;12.98;;
37355;SDS011;48747;50.250;18.848;2023-01-30T03:33:41;23.55;;;12.78;;
37355;SDS011;48747;50.250;18.848;2023-01-30T03:35:47;27.95;;;13.15;;
37355;SDS011;48747;50.250;18.848;2023-01-30T03:37:52;22.93;;;10.75;;
37355;SDS011;48747;50.250;18.848;2023-01-30T03:39:57;23.90;;;12.75;;
37355;SDS011;48747;50.250;18.848;2023-01-30T03:42:00;27.60;;;13.00;;
37355;SDS011;48747;50.250;18.848;2023-01-30T03:44:03;25.88;;;12.05;;
37355;SDS011;48747;50.250;18.848;2023-01-30T03:46:07;27.77;;;14.00;;
37355;SDS011;48747;50.250;18.848;2023-01-30T03:48:10;22.35;;;13.08;;
37355;SDS011;48747;50.250;18.848;2023-01-30T03:50:13;22.35;;;12.35;;
37355;SDS011;48747;50.250;18.848;2023-01-30T03:52:16;24.05;;;12.85;;
37355;SDS011;48747;50.250;18.848;2023-01-30T03:54:19;24.85;;;13.30;;
37355;SDS011;48747;50.250;18.848;2023-01-30T03:56:22;21.45;;;12.35;;
37355;SDS011;48747;50.250;18.848;2023-01-30T03:58:26;25.10;;;10.90;;
37355;SDS011;48747;50.250;18.848;2023-01-30T04:00:29;25.82;;;13.65;;
37355;SDS011;48747;50.250;18.848;2023-01-30T04:02:33;27.27;;;13.83;;
37355;SDS011;48747;50.250;18.848;2023-01-30T04:04:38;24.25;;;13.05;;
37355;SDS011;48747;50.250;18.848;2023-01-30T04:06:43;20.65;;;11.55;;
37355;SDS011;48747;50.250;18.848;2023-01-30T04:08:46;25.77;;;13.60;;
37355;SDS011;48747;50.250;18.848;2023-01-30T04:10:49;25.25;;;13.48;;
37355;SDS011;48747;50.250;18.848;2023-01-30T04:12:52;24.43;;;12.13;;
37355;SDS011;48747;50.250;18.848;2023-01-30T04:14:55;25.37;;;13.60;;
37355;SDS011;48747;50.250;18.848;2023-01-30T04:16:58;25.45;;;12.63;;
37355;SDS011;48747;50.250;18.848;2023-01-30T04:19:02;22.55;;;12.53;;
37355;SDS011;48747;50.250;18.848;2023-01-30T04:21:08;24.05;;;13.08;;
37355;SDS011;48747;50.250;18.848;2023-01-30T04:23:11;23.32;;;12.68;;
37355;SDS011;48747;50.250;18.848;2023-01-30T04:25:16;24.35;;;13.05;;
37355;SDS011;48747;50.250;18.848;2023-01-30T04:27:19;23.10;;;12.73;;
37355;SDS011;48747;50.250;18.848;2023-01-30T04:29:22;23.32;;;11.30;;
37355;SDS011;48747;50.250;18.848;2023-01-30T04:31:25;22.50;;;12.13;;
37355;SDS011;48747;50.250;18.848;2023-01-30T04:33:28;22.95;;;11.93;;
37355;SDS011;48747;50.250;18.848;2023-01-30T04:35:33;20.97;;;11.18;;
37355;SDS011;48747;50.250;18.848;2023-01-30T04:37:38;23.85;;;12.82;;
37355;SDS011;48747;50.250;18.848;2023-01-30T04:39:41;23.18;;;12.55;;
37355;SDS011;48747;50.250;18.848;2023-01-30T04:41:44;22.67;;;12.05;;
37355;SDS011;48747;50.250;18.848;2023-01-30T04:43:47;23.12;;;12.35;;
37355;SDS011;48747;50.250;18.848;2023-01-30T04:45:50;26.68;;;14.00;;
37355;SDS011;48747;50.250;18.848;2023-01-30T04:47:54;23.90;;;12.98;;
37355;SDS011;48747;50.250;18.848;2023-01-30T04:50:00;24.32;;;13.05;;
37355;SDS011;48747;50.250;18.848;2023-01-30T04:52:03;27.27;;;13.70;;
37355;SDS011;48747;50.250;18.848;2023-01-30T04:54:06;23.30;;;12.28;;
37355;SDS011;48747;50.250;18.848;2023-01-30T04:56:09;18.35;;;10.48;;
37355;SDS011;48747;50.250;18.848;2023-01-30T04:58:16;26.87;;;13.53;;
37355;SDS011;48747;50.250;18.848;2023-01-30T05:00:21;26.55;;;14.07;;
37355;SDS011;48747;50.250;18.848;2023-01-30T05:02:24;25.30;;;13.25;;
37355;SDS011;48747;50.250;18.848;2023-01-30T05:04:27;20.97;;;11.20;;
37355;SDS011;48747;50.250;18.848;2023-01-30T05:06:30;25.45;;;13.65;;
37355;SDS011;48747;50.250;18.848;2023-01-30T05:08:41;31.30;;;15.05;;
37355;SDS011;48747;50.250;18.848;2023-01-30T05:10:40;34.05;;;15.43;;
37355;SDS011;48747;50.250;18.848;2023-01-30T05:12:45;26.05;;;13.68;;
37355;SDS011;48747;50.250;18.848;2023-01-30T05:14:48;26.68;;;13.10;;
37355;SDS011;48747;50.250;18.848;2023-01-30T05:16:51;24.23;;;11.85;;
37355;SDS011;48747;50.250;18.848;2023-01-30T05:18:54;26.68;;;13.45;;
37355;SDS011;48747;50.250;18.848;2023-01-30T05:21:04;24.55;;;13.78;;
37355;SDS011;48747;50.250;18.848;2023-01-30T05:23:09;25.00;;;13.22;;
37355;SDS011;48747;50.250;18.848;2023-01-30T05:25:13;32.20;;;14.40;;
37355;SDS011;48747;50.250;18.848;2023-01-30T05:27:16;30.65;;;15.05;;
37355;SDS011;48747;50.250;18.848;2023-01-30T05:29:19;30.82;;;15.95;;
37355;SDS011;48747;50.250;18.848;2023-01-30T05:31:22;26.23;;;13.80;;
37355;SDS011;48747;50.250;18.848;2023-01-30T05:33:26;28.92;;;14.15;;
37355;SDS011;48747;50.250;18.848;2023-01-30T05:35:29;24.65;;;13.58;;
37355;SDS011;48747;50.250;18.848;2023-01-30T05:37:32;27.25;;;13.95;;
37355;SDS011;48747;50.250;18.848;2023-01-30T05:39:35;26.37;;;13.38;;
37355;SDS011;48747;50.250;18.848;2023-01-30T05:41:38;28.90;;;14.75;;
37355;SDS011;48747;50.250;18.848;2023-01-30T05:43:42;30.15;;;15.55;;
37355;SDS011;48747;50.250;18.848;2023-01-30T05:45:51;28.17;;;14.75;;
37355;SDS011;48747;50.250;18.848;2023-01-30T05:47:57;26.77;;;14.25;;
37355;SDS011;48747;50.250;18.848;2023-01-30T05:50:01;27.50;;;14.18;;
37355;SDS011;48747;50.250;18.848;2023-01-30T05:52:06;20.30;;;10.65;;
37355;SDS011;48747;50.250;18.848;2023-01-30T05:54:09;27.35;;;13.35;;
37355;SDS011;48747;50.250;18.848;2023-01-30T05:56:17;33.75;;;15.85;;
37355;SDS011;48747;50.250;18.848;2023-01-30T05:58:25;34.55;;;16.95;;
37355;SDS011;48747;50.250;18.848;2023-01-30T06:00:25;33.10;;;15.30;;
37355;SDS011;48747;50.250;18.848;2023-01-30T06:02:45;35.45;;;16.82;;
37355;SDS011;48747;50.250;18.848;2023-01-30T06:04:35;44.85;;;20.50;;
37355;SDS011;48747;50.250;18.848;2023-01-30T06:06:44;33.78;;;16.77;;
37355;SDS011;48747;50.250;18.848;2023-01-30T06:08:46;30.72;;;14.87;;
37355;SDS011;48747;50.250;18.848;2023-01-30T06:10:51;30.45;;;15.55;;
37355;SDS011;48747;50.250;18.848;2023-01-30T06:12:54;29.00;;;14.87;;
37355;SDS011;48747;50.250;18.848;2023-01-30T06:14:57;31.00;;;15.20;;
37355;SDS011;48747;50.250;18.848;2023-01-30T06:17:00;27.15;;;14.40;;
37355;SDS011;48747;50.250;18.848;2023-01-30T06:19:06;30.82;;;16.00;;
37355;SDS011;48747;50.250;18.848;2023-01-30T06:21:12;33.33;;;16.55;;
37355;SDS011;48747;50.250;18.848;2023-01-30T06:23:16;33.13;;;15.85;;
37355;SDS011;48747;50.250;18.848;2023-01-30T06:25:22;32.08;;;15.70;;
37355;SDS011;48747;50.250;18.848;2023-01-30T06:27:27;31.68;;;16.45;;
37355;SDS011;48747;50.250;18.848;2023-01-30T06:29:32;30.02;;;16.12;;
37355;SDS011;48747;50.250;18.848;2023-01-30T06:31:35;30.10;;;15.15;;
37355;SDS011;48747;50.250;18.848;2023-01-30T06:33:38;28.42;;;15.23;;
37355;SDS011;48747;50.250;18.848;2023-01-30T06:35:46;32.78;;;16.35;;
37355;SDS011;48747;50.250;18.848;2023-01-30T06:37:56;28.02;;;14.55;;
37355;SDS011;48747;50.250;18.848;2023-01-30T06:39:58;33.33;;;15.85;;
37355;SDS011;48747;50.250;18.848;2023-01-30T06:42:01;32.13;;;15.93;;
37355;SDS011;48747;50.250;18.848;2023-01-30T06:44:07;27.90;;;14.55;;
37355;SDS011;48747;50.250;18.848;2023-01-30T06:46:13;32.70;;;16.57;;
37355;SDS011;48747;50.250;18.848;2023-01-30T06:48:17;32.23;;;15.98;;
37355;SDS011;48747;50.250;18.848;2023-01-30T06:50:21;32.17;;;16.93;;
37355;SDS011;48747;50.250;18.848;2023-01-30T06:52:32;31.62;;;15.43;;
37355;SDS011;48747;50.250;18.848;2023-01-30T06:54:32;31.77;;;16.60;;
37355;SDS011;48747;50.250;18.848;2023-01-30T06:56:36;29.48;;;15.25;;
37355;SDS011;48747;50.250;18.848;2023-01-30T06:58:40;35.13;;;17.50;;
37355;SDS011;48747;50.250;18.848;2023-01-30T07:00:46;36.55;;;17.42;;
37355;SDS011;48747;50.250;18.848;2023-01-30T07:02:53;31.52;;;15.95;;
37355;SDS011;48747;50.250;18.848;2023-01-30T07:04:57;35.30;;;16.02;;
37355;SDS011;48747;50.250;18.848;2023-01-30T07:07:03;33.58;;;17.42;;
37355;SDS011;48747;50.250;18.848;2023-01-30T07:09:08;33.95;;;17.37;;
37355;SDS011;48747;50.250;18.848;2023-01-30T07:11:11;39.75;;;17.98;;
37355;SDS011;48747;50.250;18.848;2023-01-30T07:13:16;40.60;;;18.00;;
37355;SDS011;48747;50.250;18.848;2023-01-30T07:15:19;36.93;;;17.17;;
37355;SDS011;48747;50.250;18.848;2023-01-30T07:17:23;33.80;;;16.90;;
37355;SDS011;48747;50.250;18.848;2023-01-30T07:19:27;32.17;;;17.15;;
37355;SDS011;48747;50.250;18.848;2023-01-30T07:21:31;30.88;;;16.73;;
37355;SDS011;48747;50.250;18.848;2023-01-30T07:23:41;33.02;;;16.40;;
37355;SDS011;48747;50.250;18.848;2023-01-30T07:25:41;36.60;;;17.73;;
37355;SDS011;48747;50.250;18.848;2023-01-30T07:27:55;34.70;;;16.15;;
37355;SDS011;48747;50.250;18.848;2023-01-30T07:29:59;33.83;;;17.37;;
37355;SDS011;48747;50.250;18.848;2023-01-30T07:32:02;31.27;;;14.50;;
37355;SDS011;48747;50.250;18.848;2023-01-30T07:34:07;28.70;;;14.80;;
37355;SDS011;48747;50.250;18.848;2023-01-30T07:36:10;33.63;;;16.15;;
37355;SDS011;48747;50.250;18.848;2023-01-30T07:38:15;29.05;;;15.93;;
37355;SDS011;48747;50.250;18.848;2023-01-30T07:40:24;33.95;;;16.10;;
37355;SDS011;48747;50.250;18.848;2023-01-30T07:42:26;30.43;;;15.35;;
37355;SDS011;48747;50.250;18.848;2023-01-30T07:44:29;32.42;;;15.70;;
37355;SDS011;48747;50.250;18.848;2023-01-30T07:46:34;30.80;;;16.57;;
37355;SDS011;48747;50.250;18.848;2023-01-30T07:48:37;32.93;;;16.32;;
37355;SDS011;48747;50.250;18.848;2023-01-30T07:50:47;29.82;;;14.53;;
37355;SDS011;48747;50.250;18.848;2023-01-30T07:52:47;28.77;;;15.15;;
37355;SDS011;48747;50.250;18.848;2023-01-30T07:54:50;34.92;;;17.37;;
37355;SDS011;48747;50.250;18.848;2023-01-30T07:56:53;37.58;;;16.50;;
37355;SDS011;48747;50.250;18.848;2023-01-30T07:58:59;37.17;;;16.77;;
37355;SDS011;48747;50.250;18.848;2023-01-30T08:01:04;28.92;;;15.13;;
37355;SDS011;48747;50.250;18.848;2023-01-30T08:03:11;26.97;;;13.58;;
37355;SDS011;48747;50.250;18.848;2023-01-30T08:05:16;34.70;;;14.87;;
37355;SDS011;48747;50.250;18.848;2023-01-30T08:07:21;20.68;;;11.00;;
37355;SDS011;48747;50.250;18.848;2023-01-30T08:09:25;35.55;;;16.65;;
37355;SDS011;48747;50.250;18.848;2023-01-30T08:11:30;27.50;;;13.55;;
37355;SDS011;48747;50.250;18.848;2023-01-30T08:13:35;32.40;;;15.28;;
37355;SDS011;48747;50.250;18.848;2023-01-30T08:15:38;32.65;;;15.90;;
37355;SDS011;48747;50.250;18.848;2023-01-30T08:17:44;36.93;;;16.32;;
37355;SDS011;48747;50.250;18.848;2023-01-30T08:19:48;40.48;;;16.97;;
37355;SDS011;48747;50.250;18.848;2023-01-30T08:21:51;33.90;;;16.60;;
37355;SDS011;48747;50.250;18.848;2023-01-30T08:23:57;37.95;;;16.73;;
37355;SDS011;48747;50.250;18.848;2023-01-30T08:26:07;39.50;;;17.10;;
37355;SDS011;48747;50.250;18.848;2023-01-30T08:28:07;47.60;;;14.25;;
37355;SDS011;48747;50.250;18.848;2023-01-30T08:30:10;40.40;;;18.27;;
37355;SDS011;48747;50.250;18.848;2023-01-30T08:32:14;35.88;;;17.65;;
37355;SDS011;48747;50.250;18.848;2023-01-30T08:34:20;32.67;;;15.23;;
37355;SDS011;48747;50.250;18.848;2023-01-30T08:36:23;29.52;;;16.30;;
37355;SDS011;48747;50.250;18.848;2023-01-30T08:38:27;33.08;;;17.37;;
37355;SDS011;48747;50.250;18.848;2023-01-30T08:40:30;32.48;;;14.07;;
37355;SDS011;48747;50.250;18.848;2023-01-30T08:42:35;33.42;;;15.18;;
37355;SDS011;48747;50.250;18.848;2023-01-30T08:44:38;33.30;;;15.05;;
37355;SDS011;48747;50.250;18.848;2023-01-30T08:46:41;30.20;;;17.27;;
37355;SDS011;48747;50.250;18.848;2023-01-30T08:48:44;32.90;;;16.70;;
37355;SDS011;48747;50.250;18.848;2023-01-30T08:50:53;28.85;;;14.68;;
37355;SDS011;48747;50.250;18.848;2023-01-30T08:52:53;36.00;;;18.27;;
37355;SDS011;48747;50.250;18.848;2023-01-30T08:54:58;35.10;;;16.42;;
37355;SDS011;48747;50.250;18.848;2023-01-30T08:57:01;22.90;;;11.18;;
37355;SDS011;48747;50.250;18.848;2023-01-30T08:59:06;30.50;;;12.18;;
37355;SDS011;48747;50.250;18.848;2023-01-30T09:01:11;38.33;;;15.45;;
37355;SDS011;48747;50.250;18.848;2023-01-30T09:03:21;24.75;;;11.63;;
37355;SDS011;48747;50.250;18.848;2023-01-30T09:05:23;29.92;;;15.55;;
37355;SDS011;48747;50.250;18.848;2023-01-30T09:07:29;28.40;;;15.80;;
37355;SDS011;48747;50.250;18.848;2023-01-30T09:09:32;36.38;;;16.42;;
37355;SDS011;48747;50.250;18.848;2023-01-30T09:11:37;49.42;;;17.23;;
37355;SDS011;48747;50.250;18.848;2023-01-30T09:13:42;26.10;;;13.38;;
37355;SDS011;48747;50.250;18.848;2023-01-30T09:15:47;27.50;;;15.25;;
37355;SDS011;48747;50.250;18.848;2023-01-30T09:17:57;31.35;;;15.68;;
37355;SDS011;48747;50.250;18.848;2023-01-30T09:19:58;36.77;;;16.40;;
37355;SDS011;48747;50.250;18.848;2023-01-30T09:22:01;36.73;;;18.67;;
37355;SDS011;48747;50.250;18.848;2023-01-30T09:24:07;39.92;;;21.48;;
37355;SDS011;48747;50.250;18.848;2023-01-30T09:28:27;42.00;;;18.75;;
37355;SDS011;48747;50.250;18.848;2023-01-30T09:30:35;30.50;;;14.23;;
37355;SDS011;48747;50.250;18.848;2023-01-30T09:32:57;21.25;;;11.50;;
37355;SDS011;48747;50.250;18.848;2023-01-30T09:34:51;47.90;;;19.50;;
37355;SDS011;48747;50.250;18.848;2023-01-30T09:36:54;36.60;;;17.27;;
37355;SDS011;48747;50.250;18.848;2023-01-30T09:39:04;37.83;;;17.35;;
37355;SDS011;48747;50.250;18.848;2023-01-30T09:41:12;29.60;;;14.33;;
37355;SDS011;48747;50.250;18.848;2023-01-30T09:43:35;44.38;;;19.05;;
37355;SDS011;48747;50.250;18.848;2023-01-30T09:48:31;29.35;;;12.85;;
37355;SDS011;48747;50.250;18.848;2023-01-30T09:53:13;26.75;;;13.60;;
37355;SDS011;48747;50.250;18.848;2023-01-30T09:55:29;43.78;;;19.70;;
37355;SDS011;48747;50.250;18.848;2023-01-30T09:57:40;70.67;;;30.88;;
37355;SDS011;48747;50.250;18.848;2023-01-30T09:59:46;62.85;;;28.02;;
37355;SDS011;48747;50.250;18.848;2023-01-30T10:02:12;110.55;;;54.77;;
37355;SDS011;48747;50.250;18.848;2023-01-30T10:04:23;47.33;;;23.05;;
37355;SDS011;48747;50.250;18.848;2023-01-30T10:06:32;32.05;;;16.77;;
37355;SDS011;48747;50.250;18.848;2023-01-30T10:08:44;43.08;;;21.25;;
37355;SDS011;48747;50.250;18.848;2023-01-30T10:21:00;35.80;;;17.85;;
37355;SDS011;48747;50.250;18.848;2023-01-30T10:25:33;40.52;;;19.27;;
37355;SDS011;48747;50.250;18.848;2023-01-30T10:30:02;38.35;;;18.67;;
37355;SDS011;48747;50.250;18.848;2023-01-30T10:34:52;31.75;;;16.07;;
37355;SDS011;48747;50.250;18.848;2023-01-30T10:36:18;45.25;;;18.17;;
37355;SDS011;48747;50.250;18.848;2023-01-30T10:40:36;43.02;;;18.80;;
37355;SDS011;48747;50.250;18.848;2023-01-30T10:42:58;34.10;;;16.27;;
37355;SDS011;48747;50.250;18.848;2023-01-30T10:45:14;34.38;;;17.75;;
37355;SDS011;48747;50.250;18.848;2023-01-30T10:54:25;38.13;;;18.70;;
37355;SDS011;48747;50.250;18.848;2023-01-30T11:01:35;35.70;;;17.20;;
37355;SDS011;48747;50.250;18.848;2023-01-30T11:03:41;37.87;;;17.57;;
37355;SDS011;48747;50.250;18.848;2023-01-30T11:05:57;43.63;;;19.48;;
37355;SDS011;48747;50.250;18.848;2023-01-30T11:10:18;91.92;;;29.60;;
37355;SDS011;48747;50.250;18.848;2023-01-30T11:12:29;81.47;;;27.70;;
37355;SDS011;48747;50.250;18.848;2023-01-30T11:14:28;64.50;;;24.27;;
37355;SDS011;48747;50.250;18.848;2023-01-30T11:16:55;37.30;;;17.25;;
37355;SDS011;48747;50.250;18.848;2023-01-30T11:18:53;37.45;;;18.62;;
37355;SDS011;48747;50.250;18.848;2023-01-30T11:21:03;26.87;;;13.45;;
37355;SDS011;48747;50.250;18.848;2023-01-30T11:23:21;32.63;;;16.82;;
37355;SDS011;48747;50.250;18.848;2023-01-30T11:25:31;37.67;;;17.98;;
37355;SDS011;48747;50.250;18.848;2023-01-30T11:27:40;37.83;;;18.73;;
37355;SDS011;48747;50.250;18.848;2023-01-30T11:29:46;30.60;;;16.67;;
37355;SDS011;48747;50.250;18.848;2023-01-30T11:31:51;35.95;;;18.25;;
37355;SDS011;48747;50.250;18.848;2023-01-30T11:34:00;32.25;;;17.00;;
37355;SDS011;48747;50.250;18.848;2023-01-30T11:36:21;33.25;;;17.12;;
37355;SDS011;48747;50.250;18.848;2023-01-30T11:38:35;40.23;;;19.42;;
37355;SDS011;48747;50.250;18.848;2023-01-30T11:40:38;40.20;;;20.05;;
37355;SDS011;48747;50.250;18.848;2023-01-30T11:42:46;46.20;;;21.87;;
37355;SDS011;48747;50.250;18.848;2023-01-30T11:44:54;33.42;;;17.10;;
37355;SDS011;48747;50.250;18.848;2023-01-30T11:47:01;33.98;;;17.12;;
37355;SDS011;48747;50.250;18.848;2023-01-30T11:49:11;31.05;;;17.92;;
37355;SDS011;48747;50.250;18.848;2023-01-30T11:51:20;31.87;;;16.50;;
37355;SDS011;48747;50.250;18.848;2023-01-30T11:53:29;27.27;;;13.80;;
37355;SDS011;48747;50.250;18.848;2023-01-30T11:55:36;32.53;;;16.32;;
37355;SDS011;48747;50.250;18.848;2023-01-30T11:57:46;29.75;;;16.50;;
37355;SDS011;48747;50.250;18.848;2023-01-30T11:59:58;35.20;;;15.75;;
37355;SDS011;48747;50.250;18.848;2023-01-30T12:04:17;37.70;;;17.80;;
37355;SDS011;48747;50.250;18.848;2023-01-30T12:06:24;29.72;;;15.48;;
37355;SDS011;48747;50.250;18.848;2023-01-30T12:08:33;43.15;;;20.57;;
37355;SDS011;48747;50.250;18.848;2023-01-30T12:10:40;44.33;;;16.32;;
37355;SDS011;48747;50.250;18.848;2023-01-30T12:15:12;52.78;;;21.60;;
37355;SDS011;48747;50.250;18.848;2023-01-30T12:17:38;53.25;;;20.62;;
37355;SDS011;48747;50.250;18.848;2023-01-30T12:19:42;46.88;;;21.37;;
37355;SDS011;48747;50.250;18.848;2023-01-30T12:26:43;44.60;;;20.70;;
37355;SDS011;48747;50.250;18.848;2023-01-30T12:31:03;35.63;;;17.65;;
37355;SDS011;48747;50.250;18.848;2023-01-30T12:33:20;43.95;;;18.65;;
37355;SDS011;48747;50.250;18.848;2023-01-30T12:35:16;45.73;;;21.27;;
37355;SDS011;48747;50.250;18.848;2023-01-30T12:37:26;44.38;;;19.80;;
37355;SDS011;48747;50.250;18.848;2023-01-30T12:39:45;34.43;;;18.50;;
37355;SDS011;48747;50.250;18.848;2023-01-30T12:53:27;49.18;;;24.85;;
37355;SDS011;48747;50.250;18.848;2023-01-30T13:00:50;37.88;;;19.82;;
37355;SDS011;48747;50.250;18.848;2023-01-30T13:05:40;42.00;;;22.35;;
37355;SDS011;48747;50.250;18.848;2023-01-30T13:08:05;43.13;;;21.27;;
37355;SDS011;48747;50.250;18.848;2023-01-30T13:10:29;39.20;;;20.68;;
37355;SDS011;48747;50.250;18.848;2023-01-30T13:17:47;49.10;;;24.87;;
37355;SDS011;48747;50.250;18.848;2023-01-30T13:22:38;41.35;;;21.50;;
37355;SDS011;48747;50.250;18.848;2023-01-30T13:24:47;53.75;;;25.40;;
37355;SDS011;48747;50.250;18.848;2023-01-30T13:27:04;54.27;;;27.67;;
37355;SDS011;48747;50.250;18.848;2023-01-30T13:29:17;49.27;;;23.20;;
37355;SDS011;48747;50.250;18.848;2023-01-30T13:33:36;52.70;;;23.50;;
37355;SDS011;48747;50.250;18.848;2023-01-30T13:35:51;51.23;;;24.07;;
37355;SDS011;48747;50.250;18.848;2023-01-30T13:38:07;49.35;;;25.20;;
37355;SDS011;48747;50.250;18.848;2023-01-30T13:40:18;55.23;;;28.35;;
37355;SDS011;48747;50.250;18.848;2023-01-30T13:44:45;50.92;;;23.62;;
37355;SDS011;48747;50.250;18.848;2023-01-30T13:46:58;50.35;;;24.10;;
37355;SDS011;48747;50.250;18.848;2023-01-30T13:49:11;48.87;;;25.00;;
37355;SDS011;48747;50.250;18.848;2023-01-30T13:51:22;48.08;;;23.27;;
37355;SDS011;48747;50.250;18.848;2023-01-30T13:53:46;49.63;;;20.23;;
37355;SDS011;48747;50.250;18.848;2023-01-30T14:00:38;45.15;;;19.15;;
37355;SDS011;48747;50.250;18.848;2023-01-30T14:05:12;41.13;;;19.35;;
37355;SDS011;48747;50.250;18.848;2023-01-30T14:07:17;44.48;;;20.75;;
37355;SDS011;48747;50.250;18.848;2023-01-30T14:09:24;41.70;;;19.82;;
37355;SDS011;48747;50.250;18.848;2023-01-30T14:11:32;37.20;;;17.25;;
37355;SDS011;48747;50.250;18.848;2023-01-30T14:13:49;39.15;;;21.10;;